Maracai, Brazil
Current Conditions -  °F | °C
As of 6:00 AM on Tuesday 27 Jan 2015 (Local Time) from SBDN Reporting Station
Overcast Overcast  
Wind Chill: 72°   Ceiling: 800
Heat Index: 72°   Visibility: 6mi
Dew Point: 70°   Wind: 6mph
Humidity: 94%   Direction: 310°NW
Pressure: 29.94"   Gusts: NA
Location:  22.61°S, 50.67°W
Report Text: SBDN 270800Z 31005KT 9999 BKN008 OVC015 22/21 Q1014
Loading
Personal Weather Stations






























Interactive Weather Map New forecast layout! Learn more

10-Day Weather Forecast

Advertisements
Track Severe Weather on mobile